Cheradi — IIOU2 — position and weather

sailwx.info

Track history (hours):
 
Tides and Currents Weather Stations Pressure Air Temp Water Temp Dewpoint Dewpoint Depression Visibility Wind Speed Wind Dir Waves Ship Positions

Cheradi

Last reported at 2017-Nov-24 05:28 UTC. Time now 2017-Nov-24 05:40 UTC.
Position N 40°29' E 017°13'.

Length 28 m.

Type: Tug. MMSI: 247269800.

Date/timePositionNaut miles runAvg speedWind from/ knotsBaromVisibWave heightAir tempDewpointWater temp
2017-Nov-24 05:28N 40°29' E 017°13'0 0.0
2017-Nov-24 04:58N 40°29' E 017°13'0 0.0
2017-Nov-24 04:28N 40°29' E 017°13'0 0.0
2017-Nov-24 03:58N 40°29' E 017°13'0 0.0
2017-Nov-24 03:28N 40°29' E 017°13'0 0.0
2017-Nov-24 02:58N 40°29' E 017°13'0 0.0
2017-Nov-24 02:28N 40°29' E 017°13'0 0.0
2017-Nov-24 01:58N 40°29' E 017°13'0 0.0
2017-Nov-24 01:28N 40°29' E 017°13'0 0.0
2017-Nov-24 00:58N 40°29' E 017°13'0 0.0
2017-Nov-24 00:28N 40°29' E 017°13'0 0.0
2017-Nov-23 23:58N 40°29' E 017°13'0 0.0
2017-Nov-23 23:28N 40°29' E 017°13'0 0.0
2017-Nov-23 22:58N 40°29' E 017°13'0 0.0
2017-Nov-23 22:28N 40°29' E 017°13'0 0.0
2017-Nov-23 21:58N 40°29' E 017°13'0 0.0
2017-Nov-23 21:28N 40°29' E 017°13'1 2.5
2017-Nov-23 20:56N 40°28' E 017°12'0 0.3
2017-Nov-23 20:29N 40°28' E 017°12'1 1.3
2017-Nov-23 20:00N 40°28' E 017°12'1 2.2
2017-Nov-23 19:27N 40°27' E 017°11'2 4.9
2017-Nov-23 19:00N 40°27' E 017°14'1 1.2
2017-Nov-23 18:30N 40°27' E 017°15'2 4.5
2017-Nov-23 17:58N 40°29' E 017°13'0 0.1
2017-Nov-23 17:30N 40°29' E 017°13'1 2.5
2017-Nov-23 16:59N 40°28' E 017°12'1 2.5
2017-Nov-23 16:29N 40°29' E 017°13'0 0.0
2017-Nov-23 15:59N 40°29' E 017°13'0 0.0
2017-Nov-23 15:29N 40°29' E 017°13'0 0.0
2017-Nov-23 14:59N 40°29' E 017°13'0 0.0
2017-Nov-23 14:29N 40°29' E 017°13'0 0.0
2017-Nov-23 13:59N 40°29' E 017°13'0 0.0
2017-Nov-23 13:29N 40°29' E 017°13'0 0.0
2017-Nov-23 12:59N 40°29' E 017°13'0 0.0
2017-Nov-23 12:29N 40°29' E 017°13'0 0.0
2017-Nov-23 11:59N 40°29' E 017°13'0 0.0
2017-Nov-23 11:29N 40°29' E 017°13'2 4.9
2017-Nov-23 11:00N 40°29' E 017°10'1 2.7
2017-Nov-23 10:30N 40°30' E 017°10'2 4.2
2017-Nov-23 10:00N 40°28' E 017°11'2 2.9
2017-Nov-23 09:28N 40°29' E 017°13'0 0.0
2017-Nov-23 08:58N 40°29' E 017°13'0 0.0
2017-Nov-23 08:28N 40°29' E 017°13'0 0.0
2017-Nov-23 07:58N 40°29' E 017°13'0 0.0
2017-Nov-23 07:28N 40°29' E 017°13'0 0.0
2017-Nov-23 06:58N 40°29' E 017°13'0 0.0
2017-Nov-23 06:28N 40°29' E 017°13'0 0.0
2017-Nov-23 05:58N 40°29' E 017°13'0 0.0
2017-Nov-23 05:28N 40°29' E 017°13'0 0.0
2017-Nov-23 04:58N 40°29' E 017°13'0 0.0
2017-Nov-23 04:28N 40°29' E 017°13'0 0.0
2017-Nov-23 03:58N 40°29' E 017°13'0 0.0
2017-Nov-23 03:28N 40°29' E 017°13'0 0.0
2017-Nov-23 02:58N 40°29' E 017°13'0 0.0
2017-Nov-23 02:28N 40°29' E 017°13'0 0.0
2017-Nov-23 01:58N 40°29' E 017°13'0 0.0
2017-Nov-23 01:28N 40°29' E 017°13'0 0.0
2017-Nov-23 00:58N 40°29' E 017°13'0 0.0
2017-Nov-23 00:28N 40°29' E 017°13'0 0.0
2017-Nov-22 23:58N 40°29' E 017°13'0 0.0
2017-Nov-22 23:28N 40°29' E 017°13'0 0.0
2017-Nov-22 22:55N 40°29' E 017°13'0 0.0
2017-Nov-22 22:28N 40°29' E 017°13'0 0.0
2017-Nov-22 21:58N 40°29' E 017°13'0 0.0
2017-Nov-22 21:28N 40°29' E 017°13'0 0.0
2017-Nov-22 20:58N 40°29' E 017°13'0 0.0
2017-Nov-22 20:28N 40°29' E 017°13'0 0.0
2017-Nov-22 19:58N 40°29' E 017°13'0 0.0
2017-Nov-22 19:28N 40°29' E 017°13'  
2017-Nov-20 00:30N 40°29' E 017°13'0 0.0
2017-Nov-20 00:00N 40°29' E 017°13'1 2.4
2017-Nov-19 23:29N 40°28' E 017°12'0 0.2
2017-Nov-19 22:59N 40°28' E 017°12'1 1.2
2017-Nov-19 22:30N 40°28' E 017°12'1 1.6
2017-Nov-19 21:58N 40°27' E 017°11'1 2.6
2017-Nov-19 21:29N 40°28' E 017°12'0 0.3
2017-Nov-19 21:00N 40°28' E 017°12'1 2.6
2017-Nov-19 20:30N 40°29' E 017°13'0 0.0
2017-Nov-19 20:00N 40°29' E 017°13'0 0.0
2017-Nov-19 19:30N 40°29' E 017°13'0 0.0
2017-Nov-19 19:00N 40°29' E 017°13'0 0.0
2017-Nov-19 18:30N 40°29' E 017°13'0 0.0
2017-Nov-19 18:00N 40°29' E 017°13'0 0.0
2017-Nov-19 17:30N 40°29' E 017°13'0 0.0
2017-Nov-19 16:57N 40°29' E 017°13'0 0.0
2017-Nov-19 16:30N 40°29' E 017°13'0 0.0
2017-Nov-19 16:00N 40°29' E 017°13'0 0.0
2017-Nov-19 15:30N 40°29' E 017°13'0 0.0
2017-Nov-19 15:00N 40°29' E 017°13'0 0.0
2017-Nov-19 14:30N 40°29' E 017°13'0 0.0
2017-Nov-19 14:00N 40°29' E 017°13'0 0.0
2017-Nov-19 13:30N 40°29' E 017°13'0 0.0
2017-Nov-19 13:00N 40°29' E 017°13'0 0.0
2017-Nov-19 12:30N 40°29' E 017°13'0 0.0
2017-Nov-19 12:00N 40°29' E 017°13'1 2.4
2017-Nov-19 11:31N 40°28' E 017°13'0 0.7
2017-Nov-19 10:58N 40°27' E 017°12'0 0.0
2017-Nov-19 10:28N 40°27' E 017°12'0 0.0
2017-Nov-19 09:58N 40°27' E 017°12'1 1.0
2017-Nov-19 09:28N 40°27' E 017°12'0 0.2
2017-Nov-19 08:58N 40°27' E 017°13'2 3.7
2017-Nov-19 08:29N 40°29' E 017°13'1 2.2
2017-Nov-19 08:00N 40°27' E 017°13'0 0.4
2017-Nov-19 07:30N 40°27' E 017°14'0 0.5
2017-Nov-19 07:00N 40°28' E 017°13'1 1.9
2017-Nov-19 06:30N 40°29' E 017°13'0 0.5
2017-Nov-19 05:58N 40°29' E 017°13'0 0.0
2017-Nov-19 05:28N 40°29' E 017°13'0 0.0
2017-Nov-19 04:58N 40°29' E 017°13'0 0.0
2017-Nov-19 04:28N 40°29' E 017°13'0 0.0
2017-Nov-19 03:58N 40°29' E 017°13'0 0.0
2017-Nov-19 03:28N 40°29' E 017°13'0 0.0
2017-Nov-19 02:58N 40°29' E 017°13'0 0.0
2017-Nov-19 02:28N 40°29' E 017°13'0 0.0
2017-Nov-19 01:58N 40°29' E 017°13'0 0.0
2017-Nov-19 01:28N 40°29' E 017°13'0 0.0
2017-Nov-19 00:58N 40°29' E 017°13'0 0.0
2017-Nov-19 00:28N 40°29' E 017°13'0 0.0
2017-Nov-18 23:58N 40°29' E 017°13'0 0.0
2017-Nov-18 23:28N 40°29' E 017°13'0 0.0
2017-Nov-18 22:58N 40°29' E 017°13'1 2.7
2017-Nov-18 22:30N 40°28' E 017°12'0 0.3
2017-Nov-18 21:58N 40°28' E 017°12'0 0.5
2017-Nov-18 21:27N 40°28' E 017°12'1 2.5
2017-Nov-18 20:58N 40°27' E 017°12'0 0.1
2017-Nov-18 20:28N 40°27' E 017°12'0 0.0
2017-Nov-18 19:58N 40°27' E 017°12'1 2.6
2017-Nov-18 19:30N 40°28' E 017°12'0 0.7
2017-Nov-18 19:00N 40°28' E 017°12'1 2.0
2017-Nov-18 18:27N 40°29' E 017°13'0 0.0
2017-Nov-18 18:00N 40°29' E 017°13'0 0.0
2017-Nov-18 17:30N 40°29' E 017°13'0 0.0
2017-Nov-18 17:00N 40°29' E 017°13'0 0.0
2017-Nov-18 16:30N 40°29' E 017°13'0 0.0
2017-Nov-18 16:00N 40°29' E 017°13'0 0.0
2017-Nov-18 15:30N 40°29' E 017°13'0 0.0
2017-Nov-18 15:00N 40°29' E 017°13'0 0.0
2017-Nov-18 14:30N 40°29' E 017°13'0 0.0
2017-Nov-18 14:00N 40°29' E 017°13'0 0.0
2017-Nov-18 13:30N 40°29' E 017°13'0 0.0
2017-Nov-18 13:00N 40°29' E 017°13'0 0.0
2017-Nov-18 12:30N 40°29' E 017°13'0 0.0
2017-Nov-18 12:00N 40°29' E 017°13'0 0.0
2017-Nov-18 11:30N 40°29' E 017°13'0 0.0
2017-Nov-18 10:57N 40°29' E 017°13'0 0.0
2017-Nov-18 10:30N 40°29' E 017°13'0 0.0
2017-Nov-18 10:00N 40°29' E 017°13'1 1.9
2017-Nov-18 09:30N 40°28' E 017°13'1 1.8
2017-Nov-18 08:58N 40°28' E 017°12'0 0.5
2017-Nov-18 08:31N 40°28' E 017°12'2 2.8
2017-Nov-18 07:58N 40°27' E 017°13'2 3.8
2017-Nov-18 07:30N 40°28' E 017°12'1 2.7
2017-Nov-18 07:00N 40°28' E 017°13'0 0.6
2017-Nov-18 06:29N 40°29' E 017°13'0 0.1
2017-Nov-18 05:58N 40°29' E 017°13'0 0.0
2017-Nov-18 05:28N 40°29' E 017°13'0 0.0
2017-Nov-18 04:58N 40°29' E 017°13'0 0.0
2017-Nov-18 04:28N 40°29' E 017°13'0 0.0
2017-Nov-18 03:58N 40°29' E 017°13'0 0.0
2017-Nov-18 03:28N 40°29' E 017°13'0 0.0
2017-Nov-18 02:58N 40°29' E 017°13'0 0.0
2017-Nov-18 02:28N 40°29' E 017°13'0 0.0
2017-Nov-18 01:58N 40°29' E 017°13'0 0.0
2017-Nov-18 01:28N 40°29' E 017°13'0 0.0
2017-Nov-18 00:58N 40°29' E 017°13'0 0.0
2017-Nov-18 00:28N 40°29' E 017°13'0 0.0
2017-Nov-17 23:58N 40°29' E 017°13'0 0.0
2017-Nov-17 23:28N 40°29' E 017°13'0 0.0
2017-Nov-17 22:58N 40°29' E 017°13'0 0.0
2017-Nov-17 22:28N 40°29' E 017°13'0 0.0
2017-Nov-17 21:58N 40°29' E 017°13'0 0.0
2017-Nov-17 21:28N 40°29' E 017°13'0 0.0
2017-Nov-17 20:58N 40°29' E 017°13'0 0.0
2017-Nov-17 20:28N 40°29' E 017°13'0 0.0
2017-Nov-17 19:58N 40°29' E 017°13'0 0.0
2017-Nov-17 19:28N 40°29' E 017°13'0 0.0
2017-Nov-17 18:58N 40°29' E 017°13'0 0.0
2017-Nov-17 18:28N 40°29' E 017°13'0 0.0
2017-Nov-17 17:58N 40°29' E 017°13'0 0.0
2017-Nov-17 17:28N 40°29' E 017°13'0 0.0
2017-Nov-17 16:58N 40°29' E 017°13'0 0.0
2017-Nov-17 16:28N 40°29' E 017°13'0 0.0
2017-Nov-17 15:58N 40°29' E 017°13'0 0.0
2017-Nov-17 15:28N 40°29' E 017°13'0 0.0
2017-Nov-17 14:58N 40°29' E 017°13'0 0.0
2017-Nov-17 14:28N 40°29' E 017°13'0 0.0
2017-Nov-17 13:58N 40°29' E 017°13'0 0.0
2017-Nov-17 13:28N 40°29' E 017°13'0 0.0
2017-Nov-17 12:58N 40°29' E 017°13'0 0.0
2017-Nov-17 12:28N 40°29' E 017°13'0 0.0
2017-Nov-17 11:58N 40°29' E 017°13'0 0.0
2017-Nov-17 11:28N 40°29' E 017°13'0 0.0
2017-Nov-17 10:58N 40°29' E 017°13'0 0.0
2017-Nov-17 10:28N 40°29' E 017°13'1 2.6
2017-Nov-17 10:00N 40°28' E 017°12'0 0.2
2017-Nov-17 09:30N 40°28' E 017°12'1 1.2
2017-Nov-17 09:00N 40°28' E 017°12'1 2.2
2017-Nov-17 08:27N 40°29' E 017°13'0 0.0
2017-Nov-17 08:00N 40°29' E 017°13'0 0.0
2017-Nov-17 07:30N 40°29' E 017°13'0 0.0
2017-Nov-17 07:00N 40°29' E 017°13'0 0.0
2017-Nov-17 06:30N 40°29' E 017°13'0 0.0
2017-Nov-17 06:00N 40°29' E 017°13'0 0.0
2017-Nov-17 05:30N 40°29' E 017°13'0 0.0
2017-Nov-17 05:00N 40°29' E 017°13'0 0.0
2017-Nov-17 04:30N 40°29' E 017°13'0 0.0
2017-Nov-17 04:00N 40°29' E 017°13'0 0.0
2017-Nov-17 03:30N 40°29' E 017°13'0 0.0
2017-Nov-17 03:00N 40°29' E 017°13'0 0.0
2017-Nov-17 02:30N 40°29' E 017°13'0 0.0
2017-Nov-17 02:00N 40°29' E 017°13'0 0.0
2017-Nov-17 01:30N 40°29' E 017°13'0 0.0
2017-Nov-17 01:00N 40°29' E 017°13'0 0.0
2017-Nov-17 00:30N 40°29' E 017°13'0 0.0
2017-Nov-17 00:00N 40°29' E 017°13'0 0.0
2017-Nov-16 23:27N 40°29' E 017°13'0 0.0
2017-Nov-16 23:00N 40°29' E 017°13'0 0.0
2017-Nov-16 22:30N 40°29' E 017°13'0 0.0
2017-Nov-16 22:00N 40°29' E 017°13'0 0.0
2017-Nov-16 21:30N 40°29' E 017°13'0 0.0
2017-Nov-16 21:00N 40°29' E 017°13'0 0.0
2017-Nov-16 20:30N 40°29' E 017°13'0 0.0
2017-Nov-16 20:00N 40°29' E 017°13'0 0.0
2017-Nov-16 19:30N 40°29' E 017°13'0 0.0
2017-Nov-16 19:00N 40°29' E 017°13'0 0.0
2017-Nov-16 18:30N 40°29' E 017°13'3 5.4
2017-Nov-16 18:00N 40°28' E 017°10'2 3.0
2017-Nov-16 17:28N 40°30' E 017°10'1 2.1
2017-Nov-16 16:59N 40°30' E 017°08'1 2.7
2017-Nov-16 16:30N 40°29' E 017°10'3 5.0
2017-Nov-16 15:59N 40°29' E 017°13'0 0.0
2017-Nov-16 15:29N 40°29' E 017°13'0 0.0
2017-Nov-16 14:59N 40°29' E 017°13'0 0.0
2017-Nov-16 14:29N 40°29' E 017°13'0 0.0
2017-Nov-16 13:59N 40°29' E 017°13'0 0.0
2017-Nov-16 13:29N 40°29' E 017°13'0 0.0
2017-Nov-16 12:59N 40°29' E 017°13'0 0.0
2017-Nov-16 12:29N 40°29' E 017°13'0 0.0
2017-Nov-16 11:59N 40°29' E 017°13'0 0.0
2017-Nov-16 11:29N 40°29' E 017°13'0 0.0
2017-Nov-16 10:59N 40°29' E 017°13'0 0.0
2017-Nov-16 10:29N 40°29' E 017°13'0 0.0
2017-Nov-16 09:59N 40°29' E 017°13'0 0.0
2017-Nov-16 09:29N 40°29' E 017°13'0 0.1
2017-Nov-16 08:59N 40°29' E 017°13'0 0.0
2017-Nov-16 08:29N 40°29' E 017°13'0 0.0
2017-Nov-16 07:59N 40°29' E 017°13'0 0.0
2017-Nov-16 07:29N 40°29' E 017°13'0 0.0
2017-Nov-16 06:59N 40°29' E 017°13'0 0.0
2017-Nov-16 06:29N 40°29' E 017°13'0 0.0
2017-Nov-16 05:59N 40°29' E 017°13'0 0.0
2017-Nov-16 05:29N 40°29' E 017°13'0 0.0
2017-Nov-16 04:59N 40°29' E 017°13'0 0.0
2017-Nov-16 04:29N 40°29' E 017°13'0 0.0
2017-Nov-16 03:59N 40°29' E 017°13'0 0.0
2017-Nov-16 03:29N 40°29' E 017°13'0 0.0
2017-Nov-16 02:59N 40°29' E 017°13'0 0.0
2017-Nov-16 02:29N 40°29' E 017°13'0 0.0
2017-Nov-16 01:59N 40°29' E 017°13'0 0.0
2017-Nov-16 01:29N 40°29' E 017°13'0 0.0
2017-Nov-16 00:59N 40°29' E 017°13'0 0.0
2017-Nov-16 00:29N 40°29' E 017°13'0 0.0
2017-Nov-15 23:59N 40°29' E 017°13'0 0.0
2017-Nov-15 23:29N 40°29' E 017°13'0 0.0
2017-Nov-15 22:59N 40°29' E 017°13'0 0.0
2017-Nov-15 22:26N 40°29' E 017°13'0 0.0
2017-Nov-15 21:59N 40°29' E 017°13'0 0.0
2017-Nov-15 21:29N 40°29' E 017°13'0 0.0
2017-Nov-15 20:59N 40°29' E 017°13'0 0.0
2017-Nov-15 20:29N 40°29' E 017°13'0 0.0
2017-Nov-15 19:59N 40°29' E 017°13'0 0.0
2017-Nov-15 19:29N 40°29' E 017°13'0 0.0
2017-Nov-15 18:59N 40°29' E 017°13'0 0.0
2017-Nov-15 18:29N 40°29' E 017°13'0 0.0
2017-Nov-15 17:59N 40°29' E 017°13'0 0.0
2017-Nov-15 17:29N 40°29' E 017°13'0 0.0
2017-Nov-15 16:59N 40°29' E 017°13'0 0.0
2017-Nov-15 16:29N 40°29' E 017°13'1 2.2
2017-Nov-15 15:58N 40°28' E 017°13'1 1.4
2017-Nov-15 15:30N 40°28' E 017°13'0 0.8
2017-Nov-15 14:57N 40°29' E 017°13'0 0.3
2017-Nov-15 14:28N 40°29' E 017°13'0 0.0
2017-Nov-15 13:55N 40°29' E 017°13'0 0.0
2017-Nov-15 13:28N 40°29' E 017°13'0 0.0
2017-Nov-15 12:58N 40°29' E 017°13'0 0.0
2017-Nov-15 12:28N 40°29' E 017°13'0 0.0
2017-Nov-15 11:58N 40°29' E 017°13'0 0.0
2017-Nov-15 11:28N 40°29' E 017°13'0 0.0
2017-Nov-15 10:58N 40°29' E 017°13'0 0.0
2017-Nov-15 10:28N 40°29' E 017°13'0 0.0
2017-Nov-15 09:58N 40°29' E 017°13'0 0.0
2017-Nov-15 09:28N 40°29' E 017°13'0 0.0
2017-Nov-15 08:55N 40°29' E 017°13'0 0.0
2017-Nov-15 08:25N 40°29' E 017°13'0 0.0
2017-Nov-15 07:59N 40°29' E 017°13'0 0.3
2017-Nov-15 07:30N 40°29' E 017°13'1 3.0
2017-Nov-15 07:00N 40°27' E 017°14'0 0.3
2017-Nov-15 06:30N 40°27' E 017°14'1 2.9
2017-Nov-15 06:00N 40°29' E 017°13'0 0.0
2017-Nov-15 05:30N 40°29' E 017°13'0 0.0
2017-Nov-15 05:00N 40°29' E 017°13'0 0.0
2017-Nov-15 04:30N 40°29' E 017°13'0 0.0
2017-Nov-15 04:00N 40°29' E 017°13'0 0.0
2017-Nov-15 03:30N 40°29' E 017°13'0 0.0
2017-Nov-15 03:00N 40°29' E 017°13'0 0.0
2017-Nov-15 02:30N 40°29' E 017°13'0 0.0
2017-Nov-15 02:00N 40°29' E 017°13'0 0.0
2017-Nov-15 01:30N 40°29' E 017°13'0 0.0
2017-Nov-15 01:00N 40°29' E 017°13'0 0.0
2017-Nov-15 00:30N 40°29' E 017°13'0 0.0
2017-Nov-15 00:00N 40°29' E 017°13'0 0.0
2017-Nov-14 23:30N 40°29' E 017°13'0 0.0
2017-Nov-14 23:00N 40°29' E 017°13'0 0.0
2017-Nov-14 22:30N 40°29' E 017°13'0 0.0
2017-Nov-14 22:00N 40°29' E 017°13'0 0.0
2017-Nov-14 21:30N 40°29' E 017°13'0 0.0
2017-Nov-14 21:00N 40°29' E 017°13'0 0.0
2017-Nov-14 20:30N 40°29' E 017°13'0 0.0
2017-Nov-14 20:00N 40°29' E 017°13'0 0.0
2017-Nov-14 19:30N 40°29' E 017°13'0 0.0
2017-Nov-14 19:00N 40°29' E 017°13'0 0.0
2017-Nov-14 18:27N 40°29' E 017°13'0 0.0
2017-Nov-14 18:00N 40°29' E 017°13'0 0.0
2017-Nov-14 17:30N 40°29' E 017°13'0 0.0
2017-Nov-14 17:00N 40°29' E 017°13'0 0.0
2017-Nov-14 16:30N 40°29' E 017°13'2 4.4
2017-Nov-14 15:59N 40°27' E 017°15'1 1.9
2017-Nov-14 15:29N 40°27' E 017°14'1 2.7
2017-Nov-14 15:00N 40°28' E 017°14'1 1.0
2017-Nov-14 14:28N 40°29' E 017°13'0 0.0
2017-Nov-14 13:58N 40°29' E 017°13'0 0.0
2017-Nov-14 13:28N 40°29' E 017°13'0 0.0
2017-Nov-14 12:55N 40°29' E 017°13'0 0.0
2017-Nov-14 12:28N 40°29' E 017°13'0 0.0
2017-Nov-14 11:58N 40°29' E 017°13'0 0.0
2017-Nov-14 11:28N 40°29' E 017°13'0 0.0
2017-Nov-14 10:58N 40°29' E 017°13'0 0.0
2017-Nov-14 10:28N 40°29' E 017°13'0 0.0
2017-Nov-14 09:58N 40°29' E 017°13'0 0.0
2017-Nov-14 09:28N 40°29' E 017°13'0 0.0
2017-Nov-14 08:59N 40°29' E 017°13'0 0.1
2017-Nov-14 08:28N 40°29' E 017°13'1 2.4
2017-Nov-14 08:00N 40°28' E 017°13'1 1.7
2017-Nov-14 07:26N 40°29' E 017°13'2 5.1
2017-Nov-14 06:58N 40°27' E 017°15'0 0.6
2017-Nov-14 06:30N 40°27' E 017°15'2 4.3
2017-Nov-14 06:00N 40°29' E 017°13'0 0.0
2017-Nov-14 05:30N 40°29' E 017°13'  
Track history (hours):
 
Tides and Currents Weather Stations Pressure Air Temp Water Temp Dewpoint Dewpoint Depression Visibility Wind Speed Wind Dir Waves Ship Positions

Cheradi

Last reported at 2017-Nov-24 05:28 UTC. Time now 2017-Nov-24 05:40 UTC.
Position N 40°29' E 017°13'.

Length 28 m.

Type: Tug. MMSI: 247269800.

Date/timePositionNaut miles runAvg speedWind from/ knotsBaromVisibWave heightAir tempDewpointWater temp
2017-Nov-24 05:28N 40°29' E 017°13'0 0.0
2017-Nov-24 04:58N 40°29' E 017°13'0 0.0
2017-Nov-24 04:28N 40°29' E 017°13'0 0.0
2017-Nov-24 03:58N 40°29' E 017°13'0 0.0
2017-Nov-24 03:28N 40°29' E 017°13'0 0.0
2017-Nov-24 02:58N 40°29' E 017°13'0 0.0
2017-Nov-24 02:28N 40°29' E 017°13'0 0.0
2017-Nov-24 01:58N 40°29' E 017°13'0 0.0
2017-Nov-24 01:28N 40°29' E 017°13'0 0.0
2017-Nov-24 00:58N 40°29' E 017°13'0 0.0
2017-Nov-24 00:28N 40°29' E 017°13'0 0.0
2017-Nov-23 23:58N 40°29' E 017°13'0 0.0
2017-Nov-23 23:28N 40°29' E 017°13'0 0.0
2017-Nov-23 22:58N 40°29' E 017°13'0 0.0
2017-Nov-23 22:28N 40°29' E 017°13'0 0.0
2017-Nov-23 21:58N 40°29' E 017°13'0 0.0
2017-Nov-23 21:28N 40°29' E 017°13'1 2.5
2017-Nov-23 20:56N 40°28' E 017°12'0 0.3
2017-Nov-23 20:29N 40°28' E 017°12'1 1.3
2017-Nov-23 20:00N 40°28' E 017°12'1 2.2
2017-Nov-23 19:27N 40°27' E 017°11'2 4.9
2017-Nov-23 19:00N 40°27' E 017°14'1 1.2
2017-Nov-23 18:30N 40°27' E 017°15'2 4.5
2017-Nov-23 17:58N 40°29' E 017°13'0 0.1
2017-Nov-23 17:30N 40°29' E 017°13'1 2.5
2017-Nov-23 16:59N 40°28' E 017°12'1 2.5
2017-Nov-23 16:29N 40°29' E 017°13'0 0.0
2017-Nov-23 15:59N 40°29' E 017°13'0 0.0
2017-Nov-23 15:29N 40°29' E 017°13'0 0.0
2017-Nov-23 14:59N 40°29' E 017°13'0 0.0
2017-Nov-23 14:29N 40°29' E 017°13'0 0.0
2017-Nov-23 13:59N 40°29' E 017°13'0 0.0
2017-Nov-23 13:29N 40°29' E 017°13'0 0.0
2017-Nov-23 12:59N 40°29' E 017°13'0 0.0
2017-Nov-23 12:29N 40°29' E 017°13'0 0.0
2017-Nov-23 11:59N 40°29' E 017°13'0 0.0
2017-Nov-23 11:29N 40°29' E 017°13'2 4.9
2017-Nov-23 11:00N 40°29' E 017°10'1 2.7
2017-Nov-23 10:30N 40°30' E 017°10'2 4.2
2017-Nov-23 10:00N 40°28' E 017°11'2 2.9
2017-Nov-23 09:28N 40°29' E 017°13'0 0.0
2017-Nov-23 08:58N 40°29' E 017°13'0 0.0
2017-Nov-23 08:28N 40°29' E 017°13'0 0.0
2017-Nov-23 07:58N 40°29' E 017°13'0 0.0
2017-Nov-23 07:28N 40°29' E 017°13'0 0.0
2017-Nov-23 06:58N 40°29' E 017°13'0 0.0
2017-Nov-23 06:28N 40°29' E 017°13'0 0.0
2017-Nov-23 05:58N 40°29' E 017°13'0 0.0
2017-Nov-23 05:28N 40°29' E 017°13'0 0.0
2017-Nov-23 04:58N 40°29' E 017°13'0 0.0
2017-Nov-23 04:28N 40°29' E 017°13'0 0.0
2017-Nov-23 03:58N 40°29' E 017°13'0 0.0
2017-Nov-23 03:28N 40°29' E 017°13'0 0.0
2017-Nov-23 02:58N 40°29' E 017°13'0 0.0
2017-Nov-23 02:28N 40°29' E 017°13'0 0.0
2017-Nov-23 01:58N 40°29' E 017°13'0 0.0
2017-Nov-23 01:28N 40°29' E 017°13'0 0.0
2017-Nov-23 00:58N 40°29' E 017°13'0 0.0
2017-Nov-23 00:28N 40°29' E 017°13'0 0.0
2017-Nov-22 23:58N 40°29' E 017°13'0 0.0
2017-Nov-22 23:28N 40°29' E 017°13'0 0.0
2017-Nov-22 22:55N 40°29' E 017°13'0 0.0
2017-Nov-22 22:28N 40°29' E 017°13'0 0.0
2017-Nov-22 21:58N 40°29' E 017°13'0 0.0
2017-Nov-22 21:28N 40°29' E 017°13'0 0.0
2017-Nov-22 20:58N 40°29' E 017°13'0 0.0
2017-Nov-22 20:28N 40°29' E 017°13'0 0.0
2017-Nov-22 19:58N 40°29' E 017°13'0 0.0
2017-Nov-22 19:28N 40°29' E 017°13'  
2017-Nov-20 00:30N 40°29' E 017°13'0 0.0
2017-Nov-20 00:00N 40°29' E 017°13'1 2.4
2017-Nov-19 23:29N 40°28' E 017°12'0 0.2
2017-Nov-19 22:59N 40°28' E 017°12'1 1.2
2017-Nov-19 22:30N 40°28' E 017°12'1 1.6
2017-Nov-19 21:58N 40°27' E 017°11'1 2.6
2017-Nov-19 21:29N 40°28' E 017°12'0 0.3
2017-Nov-19 21:00N 40°28' E 017°12'1 2.6
2017-Nov-19 20:30N 40°29' E 017°13'0 0.0
2017-Nov-19 20:00N 40°29' E 017°13'0 0.0
2017-Nov-19 19:30N 40°29' E 017°13'0 0.0
2017-Nov-19 19:00N 40°29' E 017°13'0 0.0
2017-Nov-19 18:30N 40°29' E 017°13'0 0.0
2017-Nov-19 18:00N 40°29' E 017°13'0 0.0
2017-Nov-19 17:30N 40°29' E 017°13'0 0.0
2017-Nov-19 16:57N 40°29' E 017°13'0 0.0
2017-Nov-19 16:30N 40°29' E 017°13'0 0.0
2017-Nov-19 16:00N 40°29' E 017°13'0 0.0
2017-Nov-19 15:30N 40°29' E 017°13'0 0.0
2017-Nov-19 15:00N 40°29' E 017°13'0 0.0
2017-Nov-19 14:30N 40°29' E 017°13'0 0.0
2017-Nov-19 14:00N 40°29' E 017°13'0 0.0
2017-Nov-19 13:30N 40°29' E 017°13'0 0.0
2017-Nov-19 13:00N 40°29' E 017°13'0 0.0
2017-Nov-19 12:30N 40°29' E 017°13'0 0.0
2017-Nov-19 12:00N 40°29' E 017°13'1 2.4
2017-Nov-19 11:31N 40°28' E 017°13'0 0.7
2017-Nov-19 10:58N 40°27' E 017°12'0 0.0
2017-Nov-19 10:28N 40°27' E 017°12'0 0.0
2017-Nov-19 09:58N 40°27' E 017°12'1 1.0
2017-Nov-19 09:28N 40°27' E 017°12'0 0.2
2017-Nov-19 08:58N 40°27' E 017°13'2 3.7
2017-Nov-19 08:29N 40°29' E 017°13'1 2.2
2017-Nov-19 08:00N 40°27' E 017°13'0 0.4
2017-Nov-19 07:30N 40°27' E 017°14'0 0.5
2017-Nov-19 07:00N 40°28' E 017°13'1 1.9
2017-Nov-19 06:30N 40°29' E 017°13'0 0.5
2017-Nov-19 05:58N 40°29' E 017°13'0 0.0
2017-Nov-19 05:28N 40°29' E 017°13'0 0.0
2017-Nov-19 04:58N 40°29' E 017°13'0 0.0
2017-Nov-19 04:28N 40°29' E 017°13'0 0.0
2017-Nov-19 03:58N 40°29' E 017°13'0 0.0
2017-Nov-19 03:28N 40°29' E 017°13'0 0.0
2017-Nov-19 02:58N 40°29' E 017°13'0 0.0
2017-Nov-19 02:28N 40°29' E 017°13'0 0.0
2017-Nov-19 01:58N 40°29' E 017°13'0 0.0
2017-Nov-19 01:28N 40°29' E 017°13'0 0.0
2017-Nov-19 00:58N 40°29' E 017°13'0 0.0
2017-Nov-19 00:28N 40°29' E 017°13'0 0.0
2017-Nov-18 23:58N 40°29' E 017°13'0 0.0
2017-Nov-18 23:28N 40°29' E 017°13'0 0.0
2017-Nov-18 22:58N 40°29' E 017°13'1 2.7
2017-Nov-18 22:30N 40°28' E 017°12'0 0.3
2017-Nov-18 21:58N 40°28' E 017°12'0 0.5
2017-Nov-18 21:27N 40°28' E 017°12'1 2.5
2017-Nov-18 20:58N 40°27' E 017°12'0 0.1
2017-Nov-18 20:28N 40°27' E 017°12'0 0.0
2017-Nov-18 19:58N 40°27' E 017°12'1 2.6
2017-Nov-18 19:30N 40°28' E 017°12'0 0.7
2017-Nov-18 19:00N 40°28' E 017°12'1 2.0
2017-Nov-18 18:27N 40°29' E 017°13'0 0.0
2017-Nov-18 18:00N 40°29' E 017°13'0 0.0
2017-Nov-18 17:30N 40°29' E 017°13'0 0.0
2017-Nov-18 17:00N 40°29' E 017°13'0 0.0
2017-Nov-18 16:30N 40°29' E 017°13'0 0.0
2017-Nov-18 16:00N 40°29' E 017°13'0 0.0
2017-Nov-18 15:30N 40°29' E 017°13'0 0.0
2017-Nov-18 15:00N 40°29' E 017°13'0 0.0
2017-Nov-18 14:30N 40°29' E 017°13'0 0.0
2017-Nov-18 14:00N 40°29' E 017°13'0 0.0
2017-Nov-18 13:30N 40°29' E 017°13'0 0.0
2017-Nov-18 13:00N 40°29' E 017°13'0 0.0
2017-Nov-18 12:30N 40°29' E 017°13'0 0.0
2017-Nov-18 12:00N 40°29' E 017°13'0 0.0
2017-Nov-18 11:30N 40°29' E 017°13'0 0.0
2017-Nov-18 10:57N 40°29' E 017°13'0 0.0
2017-Nov-18 10:30N 40°29' E 017°13'0 0.0
2017-Nov-18 10:00N 40°29' E 017°13'1 1.9
2017-Nov-18 09:30N 40°28' E 017°13'1 1.8
2017-Nov-18 08:58N 40°28' E 017°12'0 0.5
2017-Nov-18 08:31N 40°28' E 017°12'2 2.8
2017-Nov-18 07:58N 40°27' E 017°13'2 3.8
2017-Nov-18 07:30N 40°28' E 017°12'1 2.7
2017-Nov-18 07:00N 40°28' E 017°13'0 0.6
2017-Nov-18 06:29N 40°29' E 017°13'0 0.1
2017-Nov-18 05:58N 40°29' E 017°13'0 0.0
2017-Nov-18 05:28N 40°29' E 017°13'0 0.0
2017-Nov-18 04:58N 40°29' E 017°13'0 0.0
2017-Nov-18 04:28N 40°29' E 017°13'0 0.0
2017-Nov-18 03:58N 40°29' E 017°13'0 0.0
2017-Nov-18 03:28N 40°29' E 017°13'0 0.0
2017-Nov-18 02:58N 40°29' E 017°13'0 0.0
2017-Nov-18 02:28N 40°29' E 017°13'0 0.0
2017-Nov-18 01:58N 40°29' E 017°13'0 0.0
2017-Nov-18 01:28N 40°29' E 017°13'0 0.0
2017-Nov-18 00:58N 40°29' E 017°13'0 0.0
2017-Nov-18 00:28N 40°29' E 017°13'0 0.0
2017-Nov-17 23:58N 40°29' E 017°13'0 0.0
2017-Nov-17 23:28N 40°29' E 017°13'0 0.0
2017-Nov-17 22:58N 40°29' E 017°13'0 0.0
2017-Nov-17 22:28N 40°29' E 017°13'0 0.0
2017-Nov-17 21:58N 40°29' E 017°13'0 0.0
2017-Nov-17 21:28N 40°29' E 017°13'0 0.0
2017-Nov-17 20:58N 40°29' E 017°13'0 0.0
2017-Nov-17 20:28N 40°29' E 017°13'0 0.0
2017-Nov-17 19:58N 40°29' E 017°13'0 0.0
2017-Nov-17 19:28N 40°29' E 017°13'0 0.0
2017-Nov-17 18:58N 40°29' E 017°13'0 0.0
2017-Nov-17 18:28N 40°29' E 017°13'0 0.0
2017-Nov-17 17:58N 40°29' E 017°13'0 0.0
2017-Nov-17 17:28N 40°29' E 017°13'0 0.0
2017-Nov-17 16:58N 40°29' E 017°13'0 0.0
2017-Nov-17 16:28N 40°29' E 017°13'0 0.0
2017-Nov-17 15:58N 40°29' E 017°13'0 0.0
2017-Nov-17 15:28N 40°29' E 017°13'0 0.0
2017-Nov-17 14:58N 40°29' E 017°13'0 0.0
2017-Nov-17 14:28N 40°29' E 017°13'0 0.0
2017-Nov-17 13:58N 40°29' E 017°13'0 0.0
2017-Nov-17 13:28N 40°29' E 017°13'0 0.0
2017-Nov-17 12:58N 40°29' E 017°13'0 0.0
2017-Nov-17 12:28N 40°29' E 017°13'0 0.0
2017-Nov-17 11:58N 40°29' E 017°13'0 0.0
2017-Nov-17 11:28N 40°29' E 017°13'0 0.0
2017-Nov-17 10:58N 40°29' E 017°13'0 0.0
2017-Nov-17 10:28N 40°29' E 017°13'1 2.6
2017-Nov-17 10:00N 40°28' E 017°12'0 0.2
2017-Nov-17 09:30N 40°28' E 017°12'1 1.2
2017-Nov-17 09:00N 40°28' E 017°12'1 2.2
2017-Nov-17 08:27N 40°29' E 017°13'0 0.0
2017-Nov-17 08:00N 40°29' E 017°13'0 0.0
2017-Nov-17 07:30N 40°29' E 017°13'0 0.0
2017-Nov-17 07:00N 40°29' E 017°13'0 0.0
2017-Nov-17 06:30N 40°29' E 017°13'0 0.0
2017-Nov-17 06:00N 40°29' E 017°13'0 0.0
2017-Nov-17 05:30N 40°29' E 017°13'0 0.0
2017-Nov-17 05:00N 40°29' E 017°13'0 0.0
2017-Nov-17 04:30N 40°29' E 017°13'0 0.0
2017-Nov-17 04:00N 40°29' E 017°13'0 0.0
2017-Nov-17 03:30N 40°29' E 017°13'0 0.0
2017-Nov-17 03:00N 40°29' E 017°13'0 0.0
2017-Nov-17 02:30N 40°29' E 017°13'0 0.0
2017-Nov-17 02:00N 40°29' E 017°13'0 0.0
2017-Nov-17 01:30N 40°29' E 017°13'0 0.0
2017-Nov-17 01:00N 40°29' E 017°13'0 0.0
2017-Nov-17 00:30N 40°29' E 017°13'0 0.0
2017-Nov-17 00:00N 40°29' E 017°13'0 0.0
2017-Nov-16 23:27N 40°29' E 017°13'0 0.0
2017-Nov-16 23:00N 40°29' E 017°13'0 0.0
2017-Nov-16 22:30N 40°29' E 017°13'0 0.0
2017-Nov-16 22:00N 40°29' E 017°13'0 0.0
2017-Nov-16 21:30N 40°29' E 017°13'0 0.0
2017-Nov-16 21:00N 40°29' E 017°13'0 0.0
2017-Nov-16 20:30N 40°29' E 017°13'0 0.0
2017-Nov-16 20:00N 40°29' E 017°13'0 0.0
2017-Nov-16 19:30N 40°29' E 017°13'0 0.0
2017-Nov-16 19:00N 40°29' E 017°13'0 0.0
2017-Nov-16 18:30N 40°29' E 017°13'3 5.4
2017-Nov-16 18:00N 40°28' E 017°10'2 3.0
2017-Nov-16 17:28N 40°30' E 017°10'1 2.1
2017-Nov-16 16:59N 40°30' E 017°08'1 2.7
2017-Nov-16 16:30N 40°29' E 017°10'3 5.0
2017-Nov-16 15:59N 40°29' E 017°13'0 0.0
2017-Nov-16 15:29N 40°29' E 017°13'0 0.0
2017-Nov-16 14:59N 40°29' E 017°13'0 0.0
2017-Nov-16 14:29N 40°29' E 017°13'0 0.0
2017-Nov-16 13:59N 40°29' E 017°13'0 0.0
2017-Nov-16 13:29N 40°29' E 017°13'0 0.0
2017-Nov-16 12:59N 40°29' E 017°13'0 0.0
2017-Nov-16 12:29N 40°29' E 017°13'0 0.0
2017-Nov-16 11:59N 40°29' E 017°13'0 0.0
2017-Nov-16 11:29N 40°29' E 017°13'0 0.0
2017-Nov-16 10:59N 40°29' E 017°13'0 0.0
2017-Nov-16 10:29N 40°29' E 017°13'0 0.0
2017-Nov-16 09:59N 40°29' E 017°13'0 0.0
2017-Nov-16 09:29N 40°29' E 017°13'0 0.1
2017-Nov-16 08:59N 40°29' E 017°13'0 0.0
2017-Nov-16 08:29N 40°29' E 017°13'0 0.0
2017-Nov-16 07:59N 40°29' E 017°13'0 0.0
2017-Nov-16 07:29N 40°29' E 017°13'0 0.0
2017-Nov-16 06:59N 40°29' E 017°13'0 0.0
2017-Nov-16 06:29N 40°29' E 017°13'0 0.0
2017-Nov-16 05:59N 40°29' E 017°13'0 0.0
2017-Nov-16 05:29N 40°29' E 017°13'0 0.0
2017-Nov-16 04:59N 40°29' E 017°13'0 0.0
2017-Nov-16 04:29N 40°29' E 017°13'0 0.0
2017-Nov-16 03:59N 40°29' E 017°13'0 0.0
2017-Nov-16 03:29N 40°29' E 017°13'0 0.0
2017-Nov-16 02:59N 40°29' E 017°13'0 0.0
2017-Nov-16 02:29N 40°29' E 017°13'0 0.0
2017-Nov-16 01:59N 40°29' E 017°13'0 0.0
2017-Nov-16 01:29N 40°29' E 017°13'0 0.0
2017-Nov-16 00:59N 40°29' E 017°13'0 0.0
2017-Nov-16 00:29N 40°29' E 017°13'0 0.0
2017-Nov-15 23:59N 40°29' E 017°13'0 0.0
2017-Nov-15 23:29N 40°29' E 017°13'0 0.0
2017-Nov-15 22:59N 40°29' E 017°13'0 0.0
2017-Nov-15 22:26N 40°29' E 017°13'0 0.0
2017-Nov-15 21:59N 40°29' E 017°13'0 0.0
2017-Nov-15 21:29N 40°29' E 017°13'0 0.0
2017-Nov-15 20:59N 40°29' E 017°13'0 0.0
2017-Nov-15 20:29N 40°29' E 017°13'0 0.0
2017-Nov-15 19:59N 40°29' E 017°13'0 0.0
2017-Nov-15 19:29N 40°29' E 017°13'0 0.0
2017-Nov-15 18:59N 40°29' E 017°13'0 0.0
2017-Nov-15 18:29N 40°29' E 017°13'0 0.0
2017-Nov-15 17:59N 40°29' E 017°13'0 0.0
2017-Nov-15 17:29N 40°29' E 017°13'0 0.0
2017-Nov-15 16:59N 40°29' E 017°13'0 0.0
2017-Nov-15 16:29N 40°29' E 017°13'1 2.2
2017-Nov-15 15:58N 40°28' E 017°13'1 1.4
2017-Nov-15 15:30N 40°28' E 017°13'0 0.8
2017-Nov-15 14:57N 40°29' E 017°13'0 0.3
2017-Nov-15 14:28N 40°29' E 017°13'0 0.0
2017-Nov-15 13:55N 40°29' E 017°13'0 0.0
2017-Nov-15 13:28N 40°29' E 017°13'0 0.0
2017-Nov-15 12:58N 40°29' E 017°13'0 0.0
2017-Nov-15 12:28N 40°29' E 017°13'0 0.0
2017-Nov-15 11:58N 40°29' E 017°13'0 0.0
2017-Nov-15 11:28N 40°29' E 017°13'0 0.0
2017-Nov-15 10:58N 40°29' E 017°13'0 0.0
2017-Nov-15 10:28N 40°29' E 017°13'0 0.0
2017-Nov-15 09:58N 40°29' E 017°13'0 0.0
2017-Nov-15 09:28N 40°29' E 017°13'0 0.0
2017-Nov-15 08:55N 40°29' E 017°13'0 0.0
2017-Nov-15 08:25N 40°29' E 017°13'0 0.0
2017-Nov-15 07:59N 40°29' E 017°13'0 0.3
2017-Nov-15 07:30N 40°29' E 017°13'1 3.0
2017-Nov-15 07:00N 40°27' E 017°14'0 0.3
2017-Nov-15 06:30N 40°27' E 017°14'1 2.9
2017-Nov-15 06:00N 40°29' E 017°13'0 0.0
2017-Nov-15 05:30N 40°29' E 017°13'0 0.0
2017-Nov-15 05:00N 40°29' E 017°13'0 0.0
2017-Nov-15 04:30N 40°29' E 017°13'0 0.0
2017-Nov-15 04:00N 40°29' E 017°13'0 0.0
2017-Nov-15 03:30N 40°29' E 017°13'0 0.0
2017-Nov-15 03:00N 40°29' E 017°13'0 0.0
2017-Nov-15 02:30N 40°29' E 017°13'0 0.0
2017-Nov-15 02:00N 40°29' E 017°13'0 0.0
2017-Nov-15 01:30N 40°29' E 017°13'0 0.0
2017-Nov-15 01:00N 40°29' E 017°13'0 0.0
2017-Nov-15 00:30N 40°29' E 017°13'0 0.0
2017-Nov-15 00:00N 40°29' E 017°13'0 0.0
2017-Nov-14 23:30N 40°29' E 017°13'0 0.0
2017-Nov-14 23:00N 40°29' E 017°13'0 0.0
2017-Nov-14 22:30N 40°29' E 017°13'0 0.0
2017-Nov-14 22:00N 40°29' E 017°13'0 0.0
2017-Nov-14 21:30N 40°29' E 017°13'0 0.0
2017-Nov-14 21:00N 40°29' E 017°13'0 0.0
2017-Nov-14 20:30N 40°29' E 017°13'0 0.0
2017-Nov-14 20:00N 40°29' E 017°13'0 0.0
2017-Nov-14 19:30N 40°29' E 017°13'0 0.0
2017-Nov-14 19:00N 40°29' E 017°13'0 0.0
2017-Nov-14 18:27N 40°29' E 017°13'0 0.0
2017-Nov-14 18:00N 40°29' E 017°13'0 0.0
2017-Nov-14 17:30N 40°29' E 017°13'0 0.0
2017-Nov-14 17:00N 40°29' E 017°13'0 0.0
2017-Nov-14 16:30N 40°29' E 017°13'2 4.4
2017-Nov-14 15:59N 40°27' E 017°15'1 1.9
2017-Nov-14 15:29N 40°27' E 017°14'1 2.7
2017-Nov-14 15:00N 40°28' E 017°14'1 1.0
2017-Nov-14 14:28N 40°29' E 017°13'0 0.0
2017-Nov-14 13:58N 40°29' E 017°13'0 0.0
2017-Nov-14 13:28N 40°29' E 017°13'0 0.0
2017-Nov-14 12:55N 40°29' E 017°13'0 0.0
2017-Nov-14 12:28N 40°29' E 017°13'0 0.0
2017-Nov-14 11:58N 40°29' E 017°13'0 0.0
2017-Nov-14 11:28N 40°29' E 017°13'0 0.0
2017-Nov-14 10:58N 40°29' E 017°13'0 0.0
2017-Nov-14 10:28N 40°29' E 017°13'0 0.0
2017-Nov-14 09:58N 40°29' E 017°13'0 0.0
2017-Nov-14 09:28N 40°29' E 017°13'0 0.0
2017-Nov-14 08:59N 40°29' E 017°13'0 0.1
2017-Nov-14 08:28N 40°29' E 017°13'1 2.4
2017-Nov-14 08:00N 40°28' E 017°13'1 1.7
2017-Nov-14 07:26N 40°29' E 017°13'2 5.1
2017-Nov-14 06:58N 40°27' E 017°15'0 0.6
2017-Nov-14 06:30N 40°27' E 017°15'2 4.3
2017-Nov-14 06:00N 40°29' E 017°13'0 0.0
2017-Nov-14 05:30N 40°29' E 017°13'  

Dump ship's entire track history